createdAt,value
2019-03-30T00:00:29.812Z,135.70
2019-03-30T00:03:04.178Z,121.00
2019-03-30T00:05:39.013Z,120.77
2019-03-30T00:08:13.493Z,123.97
2019-03-30T00:10:48.367Z,122.28
2019-03-30T00:13:22.947Z,114.15
2019-03-30T00:15:57.820Z,112.10
2019-03-30T00:18:32.652Z,94.80
2019-03-30T00:21:07.316Z,108.90
2019-03-30T00:23:41.387Z,105.20
2019-03-30T00:26:16.424Z,103.87
2019-03-30T00:28:51.147Z,114.80
2019-03-30T00:31:26.181Z,102.27
2019-03-30T00:34:00.296Z,99.07
2019-03-30T00:36:34.618Z,102.95
2019-03-30T00:39:11.496Z,115.32
2019-03-30T00:41:46.446Z,117.13
2019-03-30T00:44:21.074Z,124.02
2019-03-30T00:46:55.482Z,125.85
2019-03-30T00:49:30.510Z,115.77
2019-03-30T00:52:05.062Z,121.82
2019-03-30T00:54:39.687Z,109.27
2019-03-30T00:57:14.409Z,103.10
2019-03-30T00:59:49.143Z,105.20
2019-03-30T01:02:23.996Z,105.35
2019-03-30T01:04:58.009Z,106.35
2019-03-30T01:07:33.011Z,105.00
2019-03-30T01:10:07.599Z,95.40
2019-03-30T01:12:42.773Z,110.68
2019-03-30T01:15:17.030Z,113.62
2019-03-30T01:17:51.796Z,113.32
2019-03-30T01:20:26.782Z,117.67
2019-03-30T01:23:01.781Z,127.35
2019-03-30T01:25:36.440Z,189.47
2019-03-30T01:28:11.373Z,240.65
2019-03-30T01:30:45.353Z,184.20
2019-03-30T01:33:20.017Z,281.47
2019-03-30T01:35:54.926Z,215.57
2019-03-30T01:38:29.443Z,223.15
2019-03-30T01:41:04.364Z,250.25
2019-03-30T01:43:39.463Z,206.85
2019-03-30T01:46:14.676Z,190.00
2019-03-30T01:48:49.273Z,159.90
2019-03-30T01:51:23.245Z,150.15
2019-03-30T01:53:57.979Z,140.62
2019-03-30T01:56:32.947Z,126.20
2019-03-30T01:59:06.515Z,116.40
2019-03-30T02:01:40.758Z,109.48
2019-03-30T02:04:15.709Z,108.55
2019-03-30T02:06:50.128Z,111.62
2019-03-30T02:09:24.760Z,108.70
2019-03-30T02:11:59.917Z,100.80
2019-03-30T02:14:34.916Z,98.17
2019-03-30T02:17:09.063Z,94.35
2019-03-30T02:19:44.456Z,104.55
2019-03-30T02:22:18.979Z,105.67
2019-03-30T02:24:53.720Z,112.25
2019-03-30T02:27:28.443Z,99.83
2019-03-30T02:30:03.451Z,106.27
2019-03-30T02:32:38.305Z,103.50
2019-03-30T02:35:12.343Z,104.70
2019-03-30T02:37:46.996Z,103.38
2019-03-30T02:40:20.680Z,105.25
2019-03-30T02:42:55.499Z,115.12
2019-03-30T02:45:29.933Z,112.03
2019-03-30T02:48:03.447Z,109.55
2019-03-30T02:50:49.411Z,100.85
2019-03-30T02:53:15.129Z,115.12
2019-03-30T02:55:50.083Z,175.65
2019-03-30T02:58:24.164Z,165.97
2019-03-30T03:00:58.182Z,139.55
2019-03-30T03:03:33.966Z,140.20
2019-03-30T03:06:09.279Z,130.63
2019-03-30T03:08:42.952Z,142.35
2019-03-30T03:11:17.414Z,146.53
2019-03-30T03:13:52.249Z,132.27
2019-03-30T03:16:27.508Z,119.55
2019-03-30T03:19:02.821Z,128.65
2019-03-30T03:21:37.848Z,121.10
2019-03-30T03:24:12.293Z,119.20
2019-03-30T03:26:46.943Z,113.75
2019-03-30T03:29:21.544Z,118.80
2019-03-30T03:31:59.287Z,116.47
2019-03-30T03:34:34.776Z,117.62
2019-03-30T03:37:08.926Z,118.50
2019-03-30T03:39:43.914Z,119.67
2019-03-30T03:42:18.070Z,115.60
2019-03-30T03:44:52.769Z,132.72
2019-03-30T03:47:27.840Z,133.10
2019-03-30T03:50:02.100Z,117.60
2019-03-30T03:52:36.701Z,119.70
2019-03-30T03:55:11.807Z,122.20
2019-03-30T03:57:48.137Z,117.35
2019-03-30T04:00:22.796Z,120.15
2019-03-30T04:03:01.094Z,112.40
2019-03-30T04:05:38.679Z,118.15
2019-03-30T04:08:14.656Z,111.50
2019-03-30T04:10:56.540Z,114.30
2019-03-30T04:13:32.571Z,110.65
2019-03-30T04:16:06.964Z,111.83
2019-03-30T04:18:41.524Z,110.25
2019-03-30T04:21:16.024Z,108.40
2019-03-30T04:23:54.216Z,124.55
2019-03-30T04:26:27.675Z,128.25
2019-03-30T04:29:02.320Z,121.42
2019-03-30T04:31:36.876Z,123.15
2019-03-30T04:34:11.811Z,117.13
2019-03-30T04:36:46.255Z,121.17
2019-03-30T04:39:21.209Z,118.55
2019-03-30T04:41:55.698Z,117.08
2019-03-30T04:44:29.619Z,115.25
2019-03-30T04:47:04.150Z,122.85
2019-03-30T04:49:38.772Z,119.72
2019-03-30T04:52:13.629Z,120.22
2019-03-30T04:54:48.277Z,122.70
2019-03-30T04:57:22.866Z,127.02
2019-03-30T04:59:58.009Z,111.83
2019-03-30T05:02:32.666Z,116.40
2019-03-30T05:05:07.132Z,122.53
2019-03-30T05:08:00.396Z,109.17
2019-03-30T05:10:34.756Z,105.05
2019-03-30T05:13:09.695Z,110.85
2019-03-30T05:15:44.153Z,112.17
2019-03-30T05:18:18.767Z,105.35
2019-03-30T05:20:53.085Z,113.40
2019-03-30T05:23:28.040Z,103.80
2019-03-30T05:26:02.596Z,108.27
2019-03-30T05:28:37.398Z,106.20
2019-03-30T05:31:11.485Z,108.00
2019-03-30T05:33:46.054Z,112.55
2019-03-30T05:36:20.719Z,115.47
2019-03-30T05:38:55.826Z,112.62
2019-03-30T05:41:30.548Z,116.93
2019-03-30T05:44:05.557Z,112.77
2019-03-30T05:46:40.747Z,118.97
2019-03-30T05:49:15.389Z,110.40
2019-03-30T05:51:49.866Z,118.85
2019-03-30T05:54:24.286Z,104.70
2019-03-30T05:56:59.216Z,124.00
2019-03-30T05:59:33.930Z,115.72
2019-03-30T06:02:08.033Z,123.65
2019-03-30T06:04:42.565Z,129.95
2019-03-30T06:07:17.659Z,129.00
2019-03-30T06:09:52.696Z,129.12
2019-03-30T06:12:26.674Z,124.27
2019-03-30T06:15:01.299Z,133.32
2019-03-30T06:17:36.239Z,129.53
2019-03-30T06:20:10.745Z,123.38
2019-03-30T06:22:45.920Z,130.18
2019-03-30T06:25:20.215Z,128.78
2019-03-30T06:27:55.017Z,133.93
2019-03-30T06:30:31.663Z,129.87
2019-03-30T06:33:06.034Z,135.35
2019-03-30T06:35:40.060Z,134.85
2019-03-30T06:38:14.512Z,126.50
2019-03-30T06:40:49.703Z,139.90
2019-03-30T06:43:24.662Z,128.15
2019-03-30T06:45:58.857Z,131.03
2019-03-30T06:48:35.845Z,119.75
2019-03-30T06:51:08.333Z,123.70
2019-03-30T06:53:42.712Z,130.27
2019-03-30T06:56:17.931Z,112.08
2019-03-30T06:58:53.213Z,126.12
2019-03-30T07:01:28.447Z,118.40
2019-03-30T07:04:03.483Z,126.47
2019-03-30T07:06:37.988Z,127.17
2019-03-30T07:09:11.690Z,118.02
2019-03-30T07:11:49.134Z,119.08
2019-03-30T07:14:25.122Z,118.85
2019-03-30T07:17:01.740Z,105.97
2019-03-30T07:19:40.472Z,104.65
2019-03-30T07:22:13.760Z,124.95
2019-03-30T07:24:47.949Z,108.00
2019-03-30T07:27:22.312Z,116.25
2019-03-30T07:29:57.151Z,108.70
2019-03-30T07:32:30.340Z,110.75
2019-03-30T07:35:04.556Z,115.03
2019-03-30T07:37:38.047Z,113.17
2019-03-30T07:40:12.060Z,111.50
2019-03-30T07:42:46.863Z,109.07
2019-03-30T07:45:21.489Z,108.27
2019-03-30T07:47:56.335Z,105.40
2019-03-30T07:50:30.892Z,108.32
2019-03-30T07:53:06.632Z,107.32
2019-03-30T07:55:40.980Z,109.55
2019-03-30T07:58:15.908Z,115.45
2019-03-30T08:00:48.709Z,119.22
2019-03-30T08:03:25.158Z,122.25
2019-03-30T08:05:58.506Z,124.70
2019-03-30T08:08:33.411Z,112.15
2019-03-30T08:11:08.425Z,118.33
2019-03-30T08:13:46.075Z,98.67
2019-03-30T08:16:20.087Z,105.63
2019-03-30T08:18:54.655Z,96.63
2019-03-30T08:21:28.712Z,96.12
2019-03-30T08:24:07.177Z,103.97
2019-03-30T08:26:39.363Z,94.35
2019-03-30T08:29:12.200Z,94.67
2019-03-30T08:31:45.871Z,84.75
2019-03-30T08:34:18.649Z,74.95
2019-03-30T08:36:59.268Z,81.20
2019-03-30T08:39:32.602Z,71.85
2019-03-30T08:42:06.477Z,78.05
2019-03-30T08:44:40.085Z,64.17
2019-03-30T08:47:19.541Z,62.45
2019-03-30T08:49:52.928Z,67.82
2019-03-30T08:52:55.653Z,64.55
2019-03-30T08:56:04.632Z,64.47
2019-03-30T08:58:38.604Z,64.72
2019-03-30T09:01:16.273Z,64.12
2019-03-30T09:03:50.114Z,60.88
2019-03-30T09:06:24.004Z,60.70
2019-03-30T09:08:57.403Z,67.05
2019-03-30T09:11:32.920Z,57.20
2019-03-30T09:14:07.277Z,54.67
2019-03-30T09:16:40.470Z,54.42
2019-03-30T09:19:13.675Z,63.68
2019-03-30T09:21:51.385Z,51.73
2019-03-30T09:24:25.261Z,49.75
2019-03-30T09:26:59.873Z,56.92
2019-03-30T09:29:34.833Z,49.48
2019-03-30T09:32:14.688Z,57.40
2019-03-30T09:34:46.104Z,55.98
2019-03-30T09:37:20.962Z,52.25
2019-03-30T09:39:55.790Z,49.85
2019-03-30T09:42:29.554Z,55.15
2019-03-30T09:45:04.224Z,54.45
2019-03-30T09:47:38.734Z,51.23
2019-03-30T09:50:12.627Z,53.95
2019-03-30T09:52:47.684Z,49.42
2019-03-30T09:55:22.218Z,54.10
2019-03-30T09:57:58.481Z,51.90
2019-03-30T10:00:32.971Z,50.70
2019-03-30T10:03:07.515Z,53.83
2019-03-30T10:05:42.139Z,46.35
2019-03-30T10:08:16.774Z,55.78
2019-03-30T10:10:50.829Z,47.43
2019-03-30T10:13:25.515Z,46.00
2019-03-30T10:15:59.927Z,49.27
2019-03-30T10:18:34.601Z,45.55
2019-03-30T10:21:09.580Z,47.08
2019-03-30T10:23:44.286Z,44.60
2019-03-30T10:26:19.724Z,49.08
2019-03-30T10:28:54.231Z,41.70
2019-03-30T10:31:29.441Z,45.45
2019-03-30T10:34:03.807Z,44.65
2019-03-30T10:36:38.903Z,47.35
2019-03-30T10:39:13.867Z,48.33
2019-03-30T10:41:48.542Z,45.33
2019-03-30T10:44:23.807Z,41.13
2019-03-30T10:46:58.953Z,42.45
2019-03-30T10:49:33.940Z,40.45
2019-03-30T10:52:08.348Z,40.67
2019-03-30T10:54:52.475Z,40.33
2019-03-30T10:57:31.287Z,39.42
2019-03-30T11:00:07.127Z,38.30
2019-03-30T11:02:41.117Z,41.90
2019-03-30T11:05:15.890Z,42.20
2019-03-30T11:08:08.764Z,37.08
2019-03-30T11:10:43.749Z,38.33
2019-03-30T11:13:18.580Z,36.08
2019-03-30T11:15:53.194Z,42.75
2019-03-30T11:18:28.833Z,34.25
2019-03-30T11:21:03.682Z,36.00
2019-03-30T11:23:38.701Z,37.17
2019-03-30T11:26:13.364Z,37.13
2019-03-30T11:28:48.359Z,34.53
2019-03-30T11:31:22.845Z,33.90
2019-03-30T11:33:58.069Z,32.93
2019-03-30T11:36:32.924Z,30.20
2019-03-30T11:39:07.491Z,30.48
2019-03-30T11:41:42.238Z,31.12
2019-03-30T11:44:16.851Z,31.52
2019-03-30T11:46:51.895Z,28.17
2019-03-30T11:49:26.594Z,28.23
2019-03-30T11:52:01.313Z,30.85
2019-03-30T11:54:36.682Z,32.33
2019-03-30T11:57:11.292Z,31.85
2019-03-30T11:59:45.455Z,29.07
2019-03-30T12:02:27.791Z,29.60
2019-03-30T12:04:57.291Z,29.18
2019-03-30T12:07:32.477Z,30.88
2019-03-30T12:10:07.386Z,30.23
2019-03-30T12:12:41.910Z,26.05
2019-03-30T12:15:17.383Z,25.90
2019-03-30T12:17:51.875Z,23.32
2019-03-30T12:20:28.395Z,24.02
2019-03-30T12:23:03.317Z,20.35
2019-03-30T12:25:37.903Z,24.40
2019-03-30T12:28:12.712Z,24.35
2019-03-30T12:30:47.551Z,24.92
2019-03-30T12:33:22.199Z,21.12
2019-03-30T12:35:57.453Z,23.22
2019-03-30T12:38:31.658Z,22.52
2019-03-30T12:41:06.246Z,22.42
2019-03-30T12:43:41.477Z,25.52
2019-03-30T12:46:15.988Z,24.72
2019-03-30T12:48:50.691Z,22.85
2019-03-30T12:51:25.629Z,23.00
2019-03-30T12:54:00.123Z,24.07
2019-03-30T12:56:34.644Z,23.12
2019-03-30T12:59:10.729Z,23.47
2019-03-30T13:01:45.634Z,21.85
2019-03-30T13:04:20.542Z,21.80
2019-03-30T13:06:55.052Z,21.35
2019-03-30T13:09:30.154Z,23.45
2019-03-30T13:12:04.782Z,21.10
2019-03-30T13:14:45.736Z,20.88
2019-03-30T13:17:20.347Z,22.37
2019-03-30T13:19:54.485Z,21.85
2019-03-30T13:22:29.197Z,19.52
2019-03-30T13:25:04.024Z,22.27
2019-03-30T13:27:38.607Z,21.52
2019-03-30T13:30:13.611Z,21.07
2019-03-30T13:32:48.753Z,19.35
2019-03-30T13:35:23.659Z,23.85
2019-03-30T13:37:58.689Z,21.35
2019-03-30T13:40:32.414Z,23.85
2019-03-30T13:43:06.957Z,23.10
2019-03-30T13:45:41.443Z,21.87
2019-03-30T13:48:16.475Z,21.45
2019-03-30T13:50:51.102Z,20.05
2019-03-30T13:53:25.935Z,22.65
2019-03-30T13:56:00.353Z,24.82
2019-03-30T13:58:36.675Z,21.80
2019-03-30T14:01:12.153Z,23.22
2019-03-30T14:03:47.222Z,22.48
2019-03-30T14:06:21.371Z,23.02
2019-03-30T14:08:56.480Z,17.75
2019-03-30T14:11:31.132Z,15.65
2019-03-30T14:14:05.703Z,16.00
2019-03-30T14:16:40.872Z,18.62
2019-03-30T14:19:16.076Z,18.23
2019-03-30T14:21:50.627Z,23.07
2019-03-30T14:24:24.292Z,23.02
2019-03-30T14:26:59.219Z,22.80
2019-03-30T14:29:34.312Z,20.85
2019-03-30T14:32:08.903Z,23.73
2019-03-30T14:34:43.834Z,26.70
2019-03-30T14:37:17.858Z,22.22
2019-03-30T14:39:52.253Z,17.35
2019-03-30T14:42:26.811Z,16.97
2019-03-30T14:45:01.975Z,16.60
2019-03-30T14:47:35.891Z,16.90
2019-03-30T14:50:11.817Z,15.72
2019-03-30T14:52:46.419Z,21.33
2019-03-30T14:55:21.638Z,15.13
2019-03-30T14:57:55.325Z,18.77
2019-03-30T15:00:30.336Z,17.27
2019-03-30T15:03:05.719Z,17.50
2019-03-30T15:05:38.946Z,15.10
2019-03-30T15:08:13.623Z,17.57
2019-03-30T15:10:47.800Z,17.48
2019-03-30T15:13:23.104Z,15.68
2019-03-30T15:15:56.338Z,16.87
2019-03-30T15:18:30.180Z,16.77
2019-03-30T15:21:04.272Z,19.87
2019-03-30T15:23:37.089Z,20.23
2019-03-30T15:26:10.362Z,21.27
2019-03-30T15:28:43.559Z,19.37
2019-03-30T15:31:16.916Z,20.10
2019-03-30T15:33:53.447Z,20.48
2019-03-30T15:36:29.323Z,19.90
2019-03-30T15:39:05.485Z,23.60
2019-03-30T15:41:40.322Z,19.32
2019-03-30T15:44:14.930Z,21.35
2019-03-30T15:46:50.284Z,19.70
2019-03-30T15:49:25.334Z,22.40
2019-03-30T15:52:13.389Z,21.00
2019-03-30T15:54:37.382Z,22.27
2019-03-30T15:57:14.199Z,23.67
2019-03-30T15:59:49.122Z,21.68
2019-03-30T16:02:25.627Z,27.30
2019-03-30T16:05:00.396Z,25.30
2019-03-30T16:07:35.198Z,25.32
2019-03-30T16:10:10.227Z,26.20
2019-03-30T16:12:44.965Z,28.02
2019-03-30T16:15:20.278Z,26.07
2019-03-30T16:17:55.514Z,25.57
2019-03-30T16:20:30.559Z,26.35
2019-03-30T16:23:05.169Z,27.65
2019-03-30T16:25:39.582Z,30.40
2019-03-30T16:28:14.745Z,34.27
2019-03-30T16:30:49.747Z,32.23
2019-03-30T16:33:23.818Z,33.02
2019-03-30T16:35:58.175Z,34.50
2019-03-30T16:38:32.894Z,37.78
2019-03-30T16:41:06.720Z,36.98
2019-03-30T16:43:41.613Z,41.98
2019-03-30T16:46:16.329Z,51.35
2019-03-30T16:48:50.917Z,46.45
2019-03-30T16:51:25.138Z,50.92
2019-03-30T16:53:59.838Z,52.48
2019-03-30T16:56:34.133Z,51.40
2019-03-30T16:59:08.303Z,60.00
2019-03-30T17:01:43.331Z,59.48
2019-03-30T17:04:18.245Z,63.45
2019-03-30T17:06:51.875Z,65.08
2019-03-30T17:09:28.262Z,66.35
2019-03-30T17:12:03.275Z,67.58
2019-03-30T17:14:38.228Z,61.75
2019-03-30T17:17:13.016Z,61.75
2019-03-30T17:19:47.574Z,61.83
2019-03-30T17:22:22.150Z,68.52
2019-03-30T17:24:56.427Z,70.15
2019-03-30T17:27:30.928Z,67.10
2019-03-30T17:30:05.063Z,68.78
2019-03-30T17:32:40.162Z,67.53
2019-03-30T17:35:13.381Z,67.65
2019-03-30T17:37:46.631Z,65.57
2019-03-30T17:40:21.052Z,63.98
2019-03-30T17:42:55.151Z,69.77
2019-03-30T17:45:32.367Z,70.72
2019-03-30T17:48:05.730Z,68.45
2019-03-30T17:50:39.996Z,67.60
2019-03-30T17:53:13.300Z,68.97
2019-03-30T17:55:48.179Z,63.08
2019-03-30T17:58:21.464Z,73.00
2019-03-30T18:00:55.647Z,74.03
2019-03-30T18:03:30.341Z,70.55
2019-03-30T18:06:04.472Z,77.80
2019-03-30T18:08:38.796Z,88.42
2019-03-30T18:11:13.251Z,80.45
2019-03-30T18:13:47.735Z,79.53
2019-03-30T18:16:22.659Z,78.57
2019-03-30T18:18:57.445Z,84.62
2019-03-30T18:21:31.948Z,150.07
2019-03-30T18:24:06.867Z,238.97
2019-03-30T18:26:40.513Z,226.65
2019-03-30T18:29:15.180Z,271.55
2019-03-30T18:31:50.875Z,240.95
2019-03-30T18:34:25.671Z,259.12
2019-03-30T18:37:00.823Z,247.60
2019-03-30T18:39:36.806Z,265.00
2019-03-30T18:42:10.869Z,260.25
2019-03-30T18:44:47.257Z,228.88
2019-03-30T18:47:21.715Z,238.72
2019-03-30T18:49:56.119Z,237.75
2019-03-30T18:52:31.410Z,220.27
2019-03-30T18:55:05.259Z,251.35
2019-03-30T18:57:39.792Z,266.75
2019-03-30T19:00:14.992Z,276.58
2019-03-30T19:02:47.894Z,267.18
2019-03-30T19:05:22.143Z,263.25
2019-03-30T19:07:56.509Z,260.17
2019-03-30T19:10:31.581Z,289.90
2019-03-30T19:13:07.351Z,291.63
2019-03-30T19:15:41.187Z,290.45
2019-03-30T19:18:15.188Z,292.77
2019-03-30T19:20:48.807Z,300.02
2019-03-30T19:23:22.087Z,299.50
2019-03-30T19:25:56.453Z,295.90
2019-03-30T19:28:29.846Z,294.90
2019-03-30T19:31:05.521Z,316.42
2019-03-30T19:33:39.340Z,320.55
2019-03-30T19:36:13.713Z,319.10
2019-03-30T19:38:47.434Z,330.62
2019-03-30T19:41:21.137Z,336.70
2019-03-30T19:43:54.631Z,338.30
2019-03-30T19:46:28.712Z,380.37
2019-03-30T19:49:02.819Z,366.70
2019-03-30T19:51:38.171Z,352.93
2019-03-30T19:54:12.310Z,363.65
2019-03-30T19:56:47.230Z,328.62
2019-03-30T19:59:21.116Z,323.75
2019-03-30T20:01:57.120Z,335.82
2019-03-30T20:04:33.150Z,295.73
2019-03-30T20:07:07.673Z,275.75
2019-03-30T20:09:43.031Z,236.07
2019-03-30T20:12:17.541Z,219.18
2019-03-30T20:14:52.443Z,202.75
2019-03-30T20:17:25.495Z,161.57
2019-03-30T20:19:59.348Z,145.02
2019-03-30T20:22:33.261Z,142.60
2019-03-30T20:25:06.642Z,153.60
2019-03-30T20:27:39.843Z,131.27
2019-03-30T20:30:13.925Z,121.75
2019-03-30T20:32:46.707Z,126.95
2019-03-30T20:35:20.710Z,110.08
2019-03-30T20:37:53.521Z,110.80
2019-03-30T20:40:26.352Z,123.78
2019-03-30T20:43:00.248Z,146.65
2019-03-30T20:45:33.897Z,146.02
2019-03-30T20:48:07.639Z,147.47
2019-03-30T20:50:40.981Z,154.05
2019-03-30T20:53:14.713Z,161.35
2019-03-30T20:55:48.193Z,188.10
2019-03-30T20:58:21.328Z,190.05
2019-03-30T21:00:54.170Z,215.52
2019-03-30T21:03:27.460Z,225.47
2019-03-30T21:06:02.261Z,216.45
2019-03-30T21:08:36.761Z,222.27
2019-03-30T21:11:11.598Z,228.18
2019-03-30T21:13:46.683Z,224.32
2019-03-30T21:16:21.440Z,242.77
2019-03-30T21:18:55.987Z,232.57
2019-03-30T21:21:30.751Z,226.75
2019-03-30T21:24:05.575Z,227.03
2019-03-30T21:26:40.437Z,227.70
2019-03-30T21:29:15.697Z,217.72
2019-03-30T21:31:50.149Z,213.32
2019-03-30T21:34:24.696Z,208.38
2019-03-30T21:36:59.545Z,192.70
2019-03-30T21:39:34.662Z,177.95
2019-03-30T21:42:09.169Z,171.45
2019-03-30T21:44:43.747Z,156.93
2019-03-30T21:47:18.759Z,157.18
2019-03-30T21:49:53.790Z,155.35
2019-03-30T21:52:28.699Z,200.35
2019-03-30T21:55:03.657Z,203.88
2019-03-30T21:57:38.695Z,173.28
2019-03-30T22:00:12.406Z,182.95
2019-03-30T22:02:47.110Z,182.68
2019-03-30T22:05:21.629Z,197.68
2019-03-30T22:07:56.453Z,147.17
2019-03-30T22:10:34.122Z,212.17
2019-03-30T22:13:08.393Z,165.07
2019-03-30T22:15:43.383Z,204.38
2019-03-30T22:18:17.995Z,190.53
2019-03-30T22:20:52.839Z,189.32
2019-03-30T22:23:27.899Z,175.15
2019-03-30T22:26:02.368Z,185.75
2019-03-30T22:28:36.673Z,181.45
2019-03-30T22:31:12.242Z,184.60
2019-03-30T22:33:46.940Z,183.45
2019-03-30T22:36:21.955Z,178.55
2019-03-30T22:38:56.498Z,174.00
2019-03-30T22:41:30.574Z,129.20
2019-03-30T22:44:05.221Z,166.68
2019-03-30T22:46:40.331Z,104.97
2019-03-30T22:49:15.867Z,161.80
2019-03-30T22:51:50.416Z,109.70
2019-03-30T22:54:25.585Z,155.85
2019-03-30T22:57:00.208Z,107.60
2019-03-30T22:59:34.812Z,135.72
2019-03-30T23:02:09.255Z,135.18
2019-03-30T23:04:43.643Z,141.75
2019-03-30T23:07:18.410Z,152.12
2019-03-30T23:09:53.448Z,142.77
2019-03-30T23:12:27.860Z,151.72
2019-03-30T23:15:02.659Z,145.92
2019-03-30T23:17:36.694Z,141.60
2019-03-30T23:20:10.719Z,130.80
2019-03-30T23:22:45.406Z,102.47
2019-03-30T23:25:19.963Z,130.20
2019-03-30T23:27:54.416Z,123.53
2019-03-30T23:30:29.327Z,101.07
2019-03-30T23:33:04.253Z,97.65
2019-03-30T23:35:39.361Z,88.87
2019-03-30T23:38:15.458Z,88.07
2019-03-30T23:40:50.030Z,79.40
2019-03-30T23:43:24.655Z,85.77
2019-03-30T23:45:59.893Z,81.85
2019-03-30T23:48:34.872Z,87.37
2019-03-30T23:51:08.767Z,89.67
2019-03-30T23:53:43.665Z,82.57
2019-03-30T23:56:28.703Z,78.02
2019-03-30T23:59:03.796Z,77.15
